createdAt,value
2023-01-27T00:02:40.923Z,89.24
2023-01-27T00:17:43.228Z,89.79
2023-01-27T00:33:03.780Z,89.54
2023-01-27T00:48:05.991Z,89.73
2023-01-27T01:03:07.984Z,89.95
2023-01-27T01:18:11.138Z,89.56
2023-01-27T01:33:13.170Z,90.15
2023-01-27T01:48:32.820Z,90.17
2023-01-27T02:03:40.255Z,90.29
2023-01-27T02:18:43.400Z,90.25
2023-01-27T02:33:45.322Z,90.18
2023-01-27T02:48:47.297Z,89.82
2023-01-27T03:03:49.173Z,89.63
2023-01-27T03:18:53.902Z,89.61
2023-01-27T03:33:55.757Z,89.55
2023-01-27T03:48:57.702Z,89.55
2023-01-27T04:04:18.338Z,89.40
2023-01-27T04:19:21.001Z,89.85
2023-01-27T04:34:22.938Z,90.18
2023-01-27T04:49:27.196Z,90.10
2023-01-27T05:04:29.219Z,90.23
2023-01-27T05:19:31.135Z,90.33
2023-01-27T05:34:33.158Z,90.69
2023-01-27T05:49:35.718Z,90.92
2023-01-27T06:04:37.592Z,90.59
2023-01-27T06:19:39.506Z,91.39
2023-01-27T06:34:41.438Z,91.47
2023-01-27T06:49:43.567Z,91.85
2023-01-27T07:04:45.498Z,91.49
2023-01-27T07:19:47.378Z,91.54
2023-01-27T07:34:49.336Z,91.12
2023-01-27T07:49:51.508Z,91.54
2023-01-27T08:04:53.994Z,91.62
2023-01-27T08:19:55.958Z,91.29
2023-01-27T08:34:57.901Z,90.78
2023-01-27T08:49:59.789Z,90.70
2023-01-27T09:05:01.768Z,90.28
2023-01-27T09:20:03.918Z,90.08
2023-01-27T09:35:06.553Z,89.88
2023-01-27T09:50:27.341Z,90.26
2023-01-27T10:05:38.461Z,89.30
2023-01-27T10:21:01.877Z,89.56
2023-01-27T10:36:09.950Z,89.29
2023-01-27T10:51:26.977Z,89.67
2023-01-27T11:06:35.252Z,89.18
2023-01-27T11:21:37.814Z,89.06
2023-01-27T11:36:41.147Z,89.30
2023-01-27T11:51:43.168Z,88.67
2023-01-27T12:06:53.421Z,88.55
2023-01-27T12:22:01.967Z,88.24
2023-01-27T12:37:08.006Z,87.94
2023-01-27T12:52:21.100Z,87.97
2023-01-27T13:07:29.973Z,88.78
2023-01-27T13:22:43.923Z,89.39
2023-01-27T13:37:59.631Z,89.94
2023-01-27T13:53:02.750Z,90.03
2023-01-27T14:08:24.406Z,90.40
2023-01-27T14:23:38.028Z,90.50
2023-01-27T14:38:54.099Z,90.56
2023-01-27T14:54:28.863Z,90.98
2023-01-27T15:09:58.534Z,91.22
2023-01-27T15:25:22.505Z,91.34
2023-01-27T15:40:25.635Z,91.73
2023-01-27T15:55:30.869Z,91.61
2023-01-27T16:10:35.606Z,91.68
2023-01-27T16:25:52.552Z,91.74
2023-01-27T16:41:03.147Z,91.70
2023-01-27T16:56:08.151Z,91.54
2023-01-27T17:11:21.027Z,91.63
2023-01-27T17:26:23.005Z,91.51
2023-01-27T17:41:26.807Z,91.45
2023-01-27T17:56:32.955Z,91.54
2023-01-27T18:11:36.868Z,91.63
2023-01-27T18:26:38.840Z,91.42
2023-01-27T18:41:47.509Z,91.70
2023-01-27T18:56:49.469Z,91.47
2023-01-27T19:11:54.050Z,91.31
2023-01-27T19:26:56.028Z,91.08
2023-01-27T19:41:57.989Z,91.12
2023-01-27T19:57:03.971Z,91.40
2023-01-27T20:12:06.337Z,91.33
2023-01-27T20:27:08.367Z,91.53
2023-01-27T20:42:10.371Z,91.27
2023-01-27T20:57:12.406Z,91.13
2023-01-27T21:12:15.309Z,91.34
2023-01-27T21:27:17.368Z,91.74
2023-01-27T21:42:40.068Z,92.39
2023-01-27T21:57:43.239Z,92.78
2023-01-27T22:12:45.589Z,92.76
2023-01-27T22:27:47.568Z,92.92
2023-01-27T22:42:50.391Z,92.80
2023-01-27T22:57:52.395Z,93.01
2023-01-27T23:12:54.398Z,92.84
2023-01-27T23:27:56.373Z,93.16
2023-01-27T23:42:58.335Z,93.12
2023-01-27T23:58:00.309Z,93.20
